sensor_id;sensor_type;location;lat;lon;timestamp;P1;durP1;ratioP1;P2;durP2;ratioP2
4424;SDS011;2225;53.568;13.266;2023-12-28T00:02:12;17.93;;;4.80;;
4424;SDS011;2225;53.568;13.266;2023-12-28T00:04:40;11.07;;;4.30;;
4424;SDS011;2225;53.568;13.266;2023-12-28T00:07:07;10.43;;;4.53;;
4424;SDS011;2225;53.568;13.266;2023-12-28T00:09:34;17.40;;;4.77;;
4424;SDS011;2225;53.568;13.266;2023-12-28T00:12:01;11.83;;;4.70;;
4424;SDS011;2225;53.568;13.266;2023-12-28T00:14:28;18.07;;;5.40;;
4424;SDS011;2225;53.568;13.266;2023-12-28T00:16:55;14.20;;;5.13;;
4424;SDS011;2225;53.568;13.266;2023-12-28T00:19:22;13.60;;;5.30;;
4424;SDS011;2225;53.568;13.266;2023-12-28T00:21:49;17.77;;;4.97;;
4424;SDS011;2225;53.568;13.266;2023-12-28T00:24:19;17.73;;;5.70;;
4424;SDS011;2225;53.568;13.266;2023-12-28T00:26:47;16.90;;;5.67;;
4424;SDS011;2225;53.568;13.266;2023-12-28T00:29:14;9.47;;;4.13;;
4424;SDS011;2225;53.568;13.266;2023-12-28T00:31:41;13.90;;;5.10;;
4424;SDS011;2225;53.568;13.266;2023-12-28T00:34:09;13.23;;;4.30;;
4424;SDS011;2225;53.568;13.266;2023-12-28T00:36:37;10.57;;;4.67;;
4424;SDS011;2225;53.568;13.266;2023-12-28T00:39:04;14.33;;;4.50;;
4424;SDS011;2225;53.568;13.266;2023-12-28T00:41:31;15.00;;;4.13;;
4424;SDS011;2225;53.568;13.266;2023-12-28T00:43:58;13.33;;;4.47;;
4424;SDS011;2225;53.568;13.266;2023-12-28T00:46:26;12.07;;;4.60;;
4424;SDS011;2225;53.568;13.266;2023-12-28T00:48:53;15.43;;;5.70;;
4424;SDS011;2225;53.568;13.266;2023-12-28T00:51:20;12.03;;;4.63;;
4424;SDS011;2225;53.568;13.266;2023-12-28T00:53:47;11.73;;;4.53;;
4424;SDS011;2225;53.568;13.266;2023-12-28T00:56:15;15.37;;;5.47;;
4424;SDS011;2225;53.568;13.266;2023-12-28T00:58:42;12.27;;;5.17;;
4424;SDS011;2225;53.568;13.266;2023-12-28T01:01:10;12.73;;;5.00;;
4424;SDS011;2225;53.568;13.266;2023-12-28T01:03:39;15.07;;;5.20;;
4424;SDS011;2225;53.568;13.266;2023-12-28T01:06:06;14.80;;;4.90;;
4424;SDS011;2225;53.568;13.266;2023-12-28T01:08:33;10.50;;;4.50;;
4424;SDS011;2225;53.568;13.266;2023-12-28T01:11:01;10.10;;;4.33;;
4424;SDS011;2225;53.568;13.266;2023-12-28T01:13:28;16.40;;;6.27;;
4424;SDS011;2225;53.568;13.266;2023-12-28T01:15:57;12.70;;;4.93;;
4424;SDS011;2225;53.568;13.266;2023-12-28T01:18:24;16.90;;;5.27;;
4424;SDS011;2225;53.568;13.266;2023-12-28T01:20:51;17.00;;;5.03;;
4424;SDS011;2225;53.568;13.266;2023-12-28T01:23:18;17.10;;;4.83;;
4424;SDS011;2225;53.568;13.266;2023-12-28T01:25:45;9.83;;;4.70;;
4424;SDS011;2225;53.568;13.266;2023-12-28T01:28:12;11.00;;;5.03;;
4424;SDS011;2225;53.568;13.266;2023-12-28T01:30:39;13.17;;;4.83;;
4424;SDS011;2225;53.568;13.266;2023-12-28T01:33:06;12.03;;;5.03;;
4424;SDS011;2225;53.568;13.266;2023-12-28T01:35:33;11.57;;;5.20;;
4424;SDS011;2225;53.568;13.266;2023-12-28T01:38:00;13.77;;;4.53;;
4424;SDS011;2225;53.568;13.266;2023-12-28T01:40:28;12.70;;;4.70;;
4424;SDS011;2225;53.568;13.266;2023-12-28T01:42:55;12.00;;;5.50;;
4424;SDS011;2225;53.568;13.266;2023-12-28T01:45:22;9.20;;;4.50;;
4424;SDS011;2225;53.568;13.266;2023-12-28T01:47:49;9.77;;;4.63;;
4424;SDS011;2225;53.568;13.266;2023-12-28T01:50:19;8.87;;;4.03;;
4424;SDS011;2225;53.568;13.266;2023-12-28T01:52:47;12.60;;;4.73;;
4424;SDS011;2225;53.568;13.266;2023-12-28T01:55:16;10.67;;;4.50;;
4424;SDS011;2225;53.568;13.266;2023-12-28T01:57:43;11.83;;;4.53;;
4424;SDS011;2225;53.568;13.266;2023-12-28T02:00:12;10.47;;;4.57;;
4424;SDS011;2225;53.568;13.266;2023-12-28T02:02:40;10.23;;;4.67;;
4424;SDS011;2225;53.568;13.266;2023-12-28T02:05:09;9.17;;;4.20;;
4424;SDS011;2225;53.568;13.266;2023-12-28T02:07:39;11.70;;;4.63;;
4424;SDS011;2225;53.568;13.266;2023-12-28T02:10:06;10.83;;;4.70;;
4424;SDS011;2225;53.568;13.266;2023-12-28T02:12:34;9.90;;;4.37;;
4424;SDS011;2225;53.568;13.266;2023-12-28T02:15:01;8.67;;;4.57;;
4424;SDS011;2225;53.568;13.266;2023-12-28T02:17:29;12.10;;;4.30;;
4424;SDS011;2225;53.568;13.266;2023-12-28T02:20:06;10.80;;;4.27;;
4424;SDS011;2225;53.568;13.266;2023-12-28T02:22:34;11.17;;;4.33;;
4424;SDS011;2225;53.568;13.266;2023-12-28T02:25:04;9.33;;;4.50;;
4424;SDS011;2225;53.568;13.266;2023-12-28T02:27:38;13.87;;;4.40;;
4424;SDS011;2225;53.568;13.266;2023-12-28T02:30:13;14.10;;;4.80;;
4424;SDS011;2225;53.568;13.266;2023-12-28T02:32:52;8.60;;;3.80;;
4424;SDS011;2225;53.568;13.266;2023-12-28T02:35:32;11.80;;;3.90;;
4424;SDS011;2225;53.568;13.266;2023-12-28T02:38:05;11.60;;;4.20;;
4424;SDS011;2225;53.568;13.266;2023-12-28T02:40:39;10.47;;;4.17;;
4424;SDS011;2225;53.568;13.266;2023-12-28T02:43:11;9.73;;;4.23;;
4424;SDS011;2225;53.568;13.266;2023-12-28T02:45:38;10.40;;;3.53;;
4424;SDS011;2225;53.568;13.266;2023-12-28T02:48:06;9.60;;;4.67;;
4424;SDS011;2225;53.568;13.266;2023-12-28T02:50:34;8.87;;;3.83;;
4424;SDS011;2225;53.568;13.266;2023-12-28T02:53:02;7.30;;;3.67;;
4424;SDS011;2225;53.568;13.266;2023-12-28T02:55:29;8.43;;;3.53;;
4424;SDS011;2225;53.568;13.266;2023-12-28T02:57:57;8.63;;;4.20;;
4424;SDS011;2225;53.568;13.266;2023-12-28T03:00:28;7.07;;;3.20;;
4424;SDS011;2225;53.568;13.266;2023-12-28T03:02:56;8.03;;;3.27;;
4424;SDS011;2225;53.568;13.266;2023-12-28T03:05:23;13.17;;;3.93;;
4424;SDS011;2225;53.568;13.266;2023-12-28T03:07:50;8.47;;;3.77;;
4424;SDS011;2225;53.568;13.266;2023-12-28T03:10:17;11.73;;;3.47;;
4424;SDS011;2225;53.568;13.266;2023-12-28T03:12:44;12.13;;;3.83;;
4424;SDS011;2225;53.568;13.266;2023-12-28T03:15:12;11.23;;;3.73;;
4424;SDS011;2225;53.568;13.266;2023-12-28T03:17:39;8.20;;;3.30;;
4424;SDS011;2225;53.568;13.266;2023-12-28T03:20:09;8.30;;;3.20;;
4424;SDS011;2225;53.568;13.266;2023-12-28T03:22:36;9.43;;;2.80;;
4424;SDS011;2225;53.568;13.266;2023-12-28T03:25:03;7.70;;;2.67;;
4424;SDS011;2225;53.568;13.266;2023-12-28T03:27:31;9.07;;;3.20;;
4424;SDS011;2225;53.568;13.266;2023-12-28T03:29:58;6.73;;;3.00;;
4424;SDS011;2225;53.568;13.266;2023-12-28T03:32:25;10.60;;;3.63;;
4424;SDS011;2225;53.568;13.266;2023-12-28T03:34:52;13.60;;;4.37;;
4424;SDS011;2225;53.568;13.266;2023-12-28T03:37:19;8.00;;;3.50;;
4424;SDS011;2225;53.568;13.266;2023-12-28T03:39:46;6.90;;;2.90;;
4424;SDS011;2225;53.568;13.266;2023-12-28T03:42:13;15.70;;;4.00;;
4424;SDS011;2225;53.568;13.266;2023-12-28T03:44:40;9.13;;;3.27;;
4424;SDS011;2225;53.568;13.266;2023-12-28T03:47:08;8.50;;;3.47;;
4424;SDS011;2225;53.568;13.266;2023-12-28T03:49:35;11.73;;;3.57;;
4424;SDS011;2225;53.568;13.266;2023-12-28T03:52:02;8.90;;;3.20;;
4424;SDS011;2225;53.568;13.266;2023-12-28T03:54:29;8.50;;;3.87;;
4424;SDS011;2225;53.568;13.266;2023-12-28T03:56:56;10.03;;;3.10;;
4424;SDS011;2225;53.568;13.266;2023-12-28T03:59:23;6.27;;;3.10;;
4424;SDS011;2225;53.568;13.266;2023-12-28T04:01:50;9.23;;;2.93;;
4424;SDS011;2225;53.568;13.266;2023-12-28T04:04:17;8.50;;;3.23;;
4424;SDS011;2225;53.568;13.266;2023-12-28T04:06:44;9.20;;;3.43;;
4424;SDS011;2225;53.568;13.266;2023-12-28T04:09:12;14.13;;;3.67;;
4424;SDS011;2225;53.568;13.266;2023-12-28T04:11:39;6.33;;;3.10;;
4424;SDS011;2225;53.568;13.266;2023-12-28T04:14:06;7.10;;;3.20;;
4424;SDS011;2225;53.568;13.266;2023-12-28T04:16:33;7.77;;;2.90;;
4424;SDS011;2225;53.568;13.266;2023-12-28T04:19:00;4.93;;;2.30;;
4424;SDS011;2225;53.568;13.266;2023-12-28T04:21:28;13.20;;;2.60;;
4424;SDS011;2225;53.568;13.266;2023-12-28T04:23:55;8.90;;;2.87;;
4424;SDS011;2225;53.568;13.266;2023-12-28T04:26:22;9.10;;;2.87;;
4424;SDS011;2225;53.568;13.266;2023-12-28T04:28:49;7.37;;;3.13;;
4424;SDS011;2225;53.568;13.266;2023-12-28T04:31:16;9.50;;;3.10;;
4424;SDS011;2225;53.568;13.266;2023-12-28T04:33:44;8.83;;;3.20;;
4424;SDS011;2225;53.568;13.266;2023-12-28T04:36:11;6.20;;;2.90;;
4424;SDS011;2225;53.568;13.266;2023-12-28T04:38:39;6.63;;;2.90;;
4424;SDS011;2225;53.568;13.266;2023-12-28T04:41:06;5.87;;;2.63;;
4424;SDS011;2225;53.568;13.266;2023-12-28T04:43:33;8.10;;;3.10;;
4424;SDS011;2225;53.568;13.266;2023-12-28T04:46:03;5.30;;;2.40;;
4424;SDS011;2225;53.568;13.266;2023-12-28T04:48:31;5.00;;;2.37;;
4424;SDS011;2225;53.568;13.266;2023-12-28T04:51:01;7.97;;;2.47;;
4424;SDS011;2225;53.568;13.266;2023-12-28T04:53:29;8.90;;;3.10;;
4424;SDS011;2225;53.568;13.266;2023-12-28T04:55:56;6.80;;;2.70;;
4424;SDS011;2225;53.568;13.266;2023-12-28T04:58:23;7.10;;;2.33;;
4424;SDS011;2225;53.568;13.266;2023-12-28T05:00:50;9.30;;;3.07;;
4424;SDS011;2225;53.568;13.266;2023-12-28T05:03:18;5.80;;;2.40;;
4424;SDS011;2225;53.568;13.266;2023-12-28T05:05:45;10.53;;;2.60;;
4424;SDS011;2225;53.568;13.266;2023-12-28T05:08:15;8.33;;;2.63;;
4424;SDS011;2225;53.568;13.266;2023-12-28T05:10:42;8.30;;;2.70;;
4424;SDS011;2225;53.568;13.266;2023-12-28T05:13:10;8.67;;;2.63;;
4424;SDS011;2225;53.568;13.266;2023-12-28T05:15:37;6.97;;;2.40;;
4424;SDS011;2225;53.568;13.266;2023-12-28T05:18:04;5.70;;;2.70;;
4424;SDS011;2225;53.568;13.266;2023-12-28T05:20:33;9.00;;;3.00;;
4424;SDS011;2225;53.568;13.266;2023-12-28T05:23:00;7.53;;;2.50;;
4424;SDS011;2225;53.568;13.266;2023-12-28T05:25:27;8.30;;;2.87;;
4424;SDS011;2225;53.568;13.266;2023-12-28T05:27:54;6.70;;;2.87;;
4424;SDS011;2225;53.568;13.266;2023-12-28T05:30:21;7.97;;;2.60;;
4424;SDS011;2225;53.568;13.266;2023-12-28T05:32:49;4.90;;;1.90;;
4424;SDS011;2225;53.568;13.266;2023-12-28T05:35:15;8.83;;;3.30;;
4424;SDS011;2225;53.568;13.266;2023-12-28T05:37:42;7.67;;;2.70;;
4424;SDS011;2225;53.568;13.266;2023-12-28T05:40:09;6.00;;;2.83;;
4424;SDS011;2225;53.568;13.266;2023-12-28T05:42:37;6.33;;;2.47;;
4424;SDS011;2225;53.568;13.266;2023-12-28T05:45:04;9.27;;;3.23;;
4424;SDS011;2225;53.568;13.266;2023-12-28T05:47:31;11.67;;;2.23;;
4424;SDS011;2225;53.568;13.266;2023-12-28T05:49:59;7.50;;;2.57;;
4424;SDS011;2225;53.568;13.266;2023-12-28T05:52:26;7.23;;;2.80;;
4424;SDS011;2225;53.568;13.266;2023-12-28T05:54:53;15.37;;;2.90;;
4424;SDS011;2225;53.568;13.266;2023-12-28T05:57:23;6.87;;;3.00;;
4424;SDS011;2225;53.568;13.266;2023-12-28T05:59:51;7.47;;;3.47;;
4424;SDS011;2225;53.568;13.266;2023-12-28T06:02:18;7.73;;;3.20;;
4424;SDS011;2225;53.568;13.266;2023-12-28T06:04:45;9.00;;;3.00;;
4424;SDS011;2225;53.568;13.266;2023-12-28T06:07:12;7.83;;;2.70;;
4424;SDS011;2225;53.568;13.266;2023-12-28T06:09:39;8.63;;;3.90;;
4424;SDS011;2225;53.568;13.266;2023-12-28T06:12:06;9.03;;;3.33;;
4424;SDS011;2225;53.568;13.266;2023-12-28T06:14:33;8.23;;;3.43;;
4424;SDS011;2225;53.568;13.266;2023-12-28T06:17:00;8.60;;;3.50;;
4424;SDS011;2225;53.568;13.266;2023-12-28T06:19:27;7.67;;;2.63;;
4424;SDS011;2225;53.568;13.266;2023-12-28T06:21:54;8.33;;;3.20;;
4424;SDS011;2225;53.568;13.266;2023-12-28T06:24:21;6.70;;;2.90;;
4424;SDS011;2225;53.568;13.266;2023-12-28T06:26:48;7.40;;;3.03;;
4424;SDS011;2225;53.568;13.266;2023-12-28T06:29:15;7.43;;;3.43;;
4424;SDS011;2225;53.568;13.266;2023-12-28T06:31:42;9.57;;;3.50;;
4424;SDS011;2225;53.568;13.266;2023-12-28T06:34:09;7.47;;;2.90;;
4424;SDS011;2225;53.568;13.266;2023-12-28T06:36:37;12.70;;;2.90;;
4424;SDS011;2225;53.568;13.266;2023-12-28T06:39:04;8.07;;;2.90;;
4424;SDS011;2225;53.568;13.266;2023-12-28T06:41:31;7.07;;;3.10;;
4424;SDS011;2225;53.568;13.266;2023-12-28T06:43:57;7.43;;;2.60;;
4424;SDS011;2225;53.568;13.266;2023-12-28T06:46:24;9.70;;;2.90;;
4424;SDS011;2225;53.568;13.266;2023-12-28T06:48:51;11.27;;;3.27;;
4424;SDS011;2225;53.568;13.266;2023-12-28T06:51:19;7.37;;;3.10;;
4424;SDS011;2225;53.568;13.266;2023-12-28T06:53:47;7.50;;;2.40;;
4424;SDS011;2225;53.568;13.266;2023-12-28T06:56:15;6.60;;;2.97;;
4424;SDS011;2225;53.568;13.266;2023-12-28T06:58:42;9.13;;;2.93;;
4424;SDS011;2225;53.568;13.266;2023-12-28T07:01:09;7.40;;;3.10;;
4424;SDS011;2225;53.568;13.266;2023-12-28T07:03:37;7.37;;;2.80;;
4424;SDS011;2225;53.568;13.266;2023-12-28T07:06:05;5.30;;;2.43;;
4424;SDS011;2225;53.568;13.266;2023-12-28T07:08:32;8.17;;;3.10;;
4424;SDS011;2225;53.568;13.266;2023-12-28T07:11:02;7.07;;;2.87;;
4424;SDS011;2225;53.568;13.266;2023-12-28T07:13:30;5.23;;;2.57;;
4424;SDS011;2225;53.568;13.266;2023-12-28T07:15:57;11.60;;;3.43;;
4424;SDS011;2225;53.568;13.266;2023-12-28T07:18:26;7.67;;;2.90;;
4424;SDS011;2225;53.568;13.266;2023-12-28T07:20:54;9.17;;;3.40;;
4424;SDS011;2225;53.568;13.266;2023-12-28T07:23:21;11.00;;;3.50;;
4424;SDS011;2225;53.568;13.266;2023-12-28T07:25:48;8.90;;;3.80;;
4424;SDS011;2225;53.568;13.266;2023-12-28T07:28:15;9.27;;;4.10;;
4424;SDS011;2225;53.568;13.266;2023-12-28T07:30:42;7.00;;;3.40;;
4424;SDS011;2225;53.568;13.266;2023-12-28T07:33:09;7.43;;;3.93;;
4424;SDS011;2225;53.568;13.266;2023-12-28T07:35:37;9.67;;;3.90;;
4424;SDS011;2225;53.568;13.266;2023-12-28T07:38:04;8.97;;;3.53;;
4424;SDS011;2225;53.568;13.266;2023-12-28T07:40:31;8.20;;;3.30;;
4424;SDS011;2225;53.568;13.266;2023-12-28T07:42:58;7.50;;;3.40;;
4424;SDS011;2225;53.568;13.266;2023-12-28T07:45:27;9.20;;;3.70;;
4424;SDS011;2225;53.568;13.266;2023-12-28T07:47:54;10.37;;;3.63;;
4424;SDS011;2225;53.568;13.266;2023-12-28T07:50:22;8.43;;;3.53;;
4424;SDS011;2225;53.568;13.266;2023-12-28T07:52:49;9.23;;;3.60;;
4424;SDS011;2225;53.568;13.266;2023-12-28T07:55:16;16.27;;;3.70;;
4424;SDS011;2225;53.568;13.266;2023-12-28T07:57:43;10.73;;;4.00;;
4424;SDS011;2225;53.568;13.266;2023-12-28T08:00:10;9.20;;;3.20;;
4424;SDS011;2225;53.568;13.266;2023-12-28T08:02:38;8.27;;;3.33;;
4424;SDS011;2225;53.568;13.266;2023-12-28T08:05:05;9.97;;;3.07;;
4424;SDS011;2225;53.568;13.266;2023-12-28T08:07:32;12.40;;;3.33;;
4424;SDS011;2225;53.568;13.266;2023-12-28T08:10:00;13.53;;;3.70;;
4424;SDS011;2225;53.568;13.266;2023-12-28T08:12:27;7.93;;;4.20;;
4424;SDS011;2225;53.568;13.266;2023-12-28T08:14:55;8.30;;;3.80;;
4424;SDS011;2225;53.568;13.266;2023-12-28T08:17:22;9.73;;;4.00;;
4424;SDS011;2225;53.568;13.266;2023-12-28T08:19:49;7.60;;;3.10;;
4424;SDS011;2225;53.568;13.266;2023-12-28T08:22:17;8.77;;;3.47;;
4424;SDS011;2225;53.568;13.266;2023-12-28T08:24:45;8.63;;;3.13;;
4424;SDS011;2225;53.568;13.266;2023-12-28T08:27:12;8.40;;;3.40;;
4424;SDS011;2225;53.568;13.266;2023-12-28T08:29:39;9.93;;;3.73;;
4424;SDS011;2225;53.568;13.266;2023-12-28T08:32:10;9.70;;;3.30;;
4424;SDS011;2225;53.568;13.266;2023-12-28T08:34:37;11.97;;;3.13;;
4424;SDS011;2225;53.568;13.266;2023-12-28T08:37:05;15.13;;;3.20;;
4424;SDS011;2225;53.568;13.266;2023-12-28T08:39:32;6.70;;;2.33;;
4424;SDS011;2225;53.568;13.266;2023-12-28T08:42:00;7.10;;;2.57;;
4424;SDS011;2225;53.568;13.266;2023-12-28T08:44:27;9.77;;;3.10;;
4424;SDS011;2225;53.568;13.266;2023-12-28T08:46:54;6.10;;;2.80;;
4424;SDS011;2225;53.568;13.266;2023-12-28T08:49:21;10.90;;;3.33;;
4424;SDS011;2225;53.568;13.266;2023-12-28T08:51:49;7.07;;;2.80;;
4424;SDS011;2225;53.568;13.266;2023-12-28T08:54:16;8.17;;;2.80;;
4424;SDS011;2225;53.568;13.266;2023-12-28T08:56:43;7.80;;;3.00;;
4424;SDS011;2225;53.568;13.266;2023-12-28T08:59:11;6.33;;;2.57;;
4424;SDS011;2225;53.568;13.266;2023-12-28T09:01:38;8.30;;;3.10;;
4424;SDS011;2225;53.568;13.266;2023-12-28T09:04:05;7.27;;;3.10;;
4424;SDS011;2225;53.568;13.266;2023-12-28T09:06:32;6.70;;;2.83;;
4424;SDS011;2225;53.568;13.266;2023-12-28T09:08:59;8.17;;;2.90;;
4424;SDS011;2225;53.568;13.266;2023-12-28T09:11:27;13.80;;;2.90;;
4424;SDS011;2225;53.568;13.266;2023-12-28T09:13:55;7.10;;;2.60;;
4424;SDS011;2225;53.568;13.266;2023-12-28T09:16:22;8.97;;;2.80;;
4424;SDS011;2225;53.568;13.266;2023-12-28T09:18:50;7.80;;;3.00;;
4424;SDS011;2225;53.568;13.266;2023-12-28T09:21:17;10.00;;;3.50;;
4424;SDS011;2225;53.568;13.266;2023-12-28T09:23:44;7.57;;;2.57;;
4424;SDS011;2225;53.568;13.266;2023-12-28T09:26:11;7.83;;;2.63;;
4424;SDS011;2225;53.568;13.266;2023-12-28T09:28:38;9.13;;;3.57;;
4424;SDS011;2225;53.568;13.266;2023-12-28T09:31:07;8.20;;;2.60;;
4424;SDS011;2225;53.568;13.266;2023-12-28T09:33:34;9.00;;;2.73;;
4424;SDS011;2225;53.568;13.266;2023-12-28T09:36:04;7.70;;;2.60;;
4424;SDS011;2225;53.568;13.266;2023-12-28T09:38:32;8.43;;;2.90;;
4424;SDS011;2225;53.568;13.266;2023-12-28T09:41:02;8.77;;;2.73;;
4424;SDS011;2225;53.568;13.266;2023-12-28T09:43:45;11.10;;;3.00;;
4424;SDS011;2225;53.568;13.266;2023-12-28T09:46:23;7.57;;;2.87;;
4424;SDS011;2225;53.568;13.266;2023-12-28T09:48:52;9.30;;;3.07;;
4424;SDS011;2225;53.568;13.266;2023-12-28T09:51:22;7.13;;;3.20;;
4424;SDS011;2225;53.568;13.266;2023-12-28T09:53:49;7.73;;;2.50;;
4424;SDS011;2225;53.568;13.266;2023-12-28T09:56:16;8.30;;;2.70;;
4424;SDS011;2225;53.568;13.266;2023-12-28T09:58:44;8.43;;;3.00;;
4424;SDS011;2225;53.568;13.266;2023-12-28T10:01:15;6.63;;;2.53;;
4424;SDS011;2225;53.568;13.266;2023-12-28T10:03:43;11.73;;;3.20;;
4424;SDS011;2225;53.568;13.266;2023-12-28T10:06:10;10.47;;;2.37;;
4424;SDS011;2225;53.568;13.266;2023-12-28T10:08:44;8.17;;;3.00;;
4424;SDS011;2225;53.568;13.266;2023-12-28T10:11:16;11.50;;;2.90;;
4424;SDS011;2225;53.568;13.266;2023-12-28T10:13:44;10.33;;;2.43;;
4424;SDS011;2225;53.568;13.266;2023-12-28T10:16:12;9.40;;;2.87;;
4424;SDS011;2225;53.568;13.266;2023-12-28T10:18:42;14.20;;;2.97;;
4424;SDS011;2225;53.568;13.266;2023-12-28T10:21:11;9.13;;;2.70;;
4424;SDS011;2225;53.568;13.266;2023-12-28T10:23:39;10.63;;;2.67;;
4424;SDS011;2225;53.568;13.266;2023-12-28T10:26:06;10.40;;;2.77;;
4424;SDS011;2225;53.568;13.266;2023-12-28T10:28:35;7.20;;;2.50;;
4424;SDS011;2225;53.568;13.266;2023-12-28T10:31:04;8.17;;;2.43;;
4424;SDS011;2225;53.568;13.266;2023-12-28T10:33:35;10.97;;;3.03;;
4424;SDS011;2225;53.568;13.266;2023-12-28T10:36:07;6.43;;;2.70;;
4424;SDS011;2225;53.568;13.266;2023-12-28T10:38:36;11.27;;;2.90;;
4424;SDS011;2225;53.568;13.266;2023-12-28T10:41:04;8.10;;;2.87;;
4424;SDS011;2225;53.568;13.266;2023-12-28T10:43:46;10.23;;;2.70;;
4424;SDS011;2225;53.568;13.266;2023-12-28T10:46:25;11.43;;;3.00;;
4424;SDS011;2225;53.568;13.266;2023-12-28T10:48:58;9.20;;;2.70;;
4424;SDS011;2225;53.568;13.266;2023-12-28T10:51:32;12.50;;;3.23;;
4424;SDS011;2225;53.568;13.266;2023-12-28T10:54:13;12.80;;;3.40;;
4424;SDS011;2225;53.568;13.266;2023-12-28T11:00:03;8.23;;;2.67;;
4424;SDS011;2225;53.568;13.266;2023-12-28T11:02:41;11.30;;;2.27;;
4424;SDS011;2225;53.568;13.266;2023-12-28T11:05:12;8.97;;;2.60;;
4424;SDS011;2225;53.568;13.266;2023-12-28T11:07:39;9.80;;;2.20;;
4424;SDS011;2225;53.568;13.266;2023-12-28T11:10:07;6.67;;;2.17;;
4424;SDS011;2225;53.568;13.266;2023-12-28T11:12:37;7.80;;;2.23;;
4424;SDS011;2225;53.568;13.266;2023-12-28T11:15:05;7.60;;;2.80;;
4424;SDS011;2225;53.568;13.266;2023-12-28T11:17:36;8.37;;;2.20;;
4424;SDS011;2225;53.568;13.266;2023-12-28T11:20:04;6.47;;;2.10;;
4424;SDS011;2225;53.568;13.266;2023-12-28T11:22:32;10.37;;;2.70;;
4424;SDS011;2225;53.568;13.266;2023-12-28T11:25:00;9.70;;;2.10;;
4424;SDS011;2225;53.568;13.266;2023-12-28T11:27:34;7.73;;;2.40;;
4424;SDS011;2225;53.568;13.266;2023-12-28T11:30:05;12.93;;;2.87;;
4424;SDS011;2225;53.568;13.266;2023-12-28T11:32:33;10.23;;;2.83;;
4424;SDS011;2225;53.568;13.266;2023-12-28T11:35:02;7.10;;;2.07;;
4424;SDS011;2225;53.568;13.266;2023-12-28T11:37:36;10.97;;;2.80;;
4424;SDS011;2225;53.568;13.266;2023-12-28T11:40:11;8.13;;;2.13;;
4424;SDS011;2225;53.568;13.266;2023-12-28T11:42:50;7.40;;;1.70;;
4424;SDS011;2225;53.568;13.266;2023-12-28T11:45:23;7.20;;;2.20;;
4424;SDS011;2225;53.568;13.266;2023-12-28T11:48:01;9.93;;;2.97;;
4424;SDS011;2225;53.568;13.266;2023-12-28T11:50:29;9.07;;;2.60;;
4424;SDS011;2225;53.568;13.266;2023-12-28T11:52:57;7.53;;;1.90;;
4424;SDS011;2225;53.568;13.266;2023-12-28T11:55:25;9.67;;;2.20;;
4424;SDS011;2225;53.568;13.266;2023-12-28T11:57:52;11.70;;;2.93;;
4424;SDS011;2225;53.568;13.266;2023-12-28T12:00:19;14.40;;;2.33;;
4424;SDS011;2225;53.568;13.266;2023-12-28T12:02:46;14.00;;;2.77;;
4424;SDS011;2225;53.568;13.266;2023-12-28T12:05:14;12.27;;;2.53;;
4424;SDS011;2225;53.568;13.266;2023-12-28T12:07:41;11.77;;;2.77;;
4424;SDS011;2225;53.568;13.266;2023-12-28T12:10:13;8.50;;;2.13;;
4424;SDS011;2225;53.568;13.266;2023-12-28T12:12:42;9.00;;;2.77;;
4424;SDS011;2225;53.568;13.266;2023-12-28T12:15:09;6.90;;;2.30;;
4424;SDS011;2225;53.568;13.266;2023-12-28T12:17:37;9.80;;;2.40;;
4424;SDS011;2225;53.568;13.266;2023-12-28T12:20:05;9.17;;;2.40;;
4424;SDS011;2225;53.568;13.266;2023-12-28T12:22:32;9.50;;;2.10;;
4424;SDS011;2225;53.568;13.266;2023-12-28T12:24:59;11.03;;;2.37;;
4424;SDS011;2225;53.568;13.266;2023-12-28T12:27:31;8.13;;;2.43;;
4424;SDS011;2225;53.568;13.266;2023-12-28T12:29:58;5.77;;;1.93;;
4424;SDS011;2225;53.568;13.266;2023-12-28T12:32:25;11.73;;;3.03;;
4424;SDS011;2225;53.568;13.266;2023-12-28T12:34:54;6.90;;;2.33;;
4424;SDS011;2225;53.568;13.266;2023-12-28T12:37:21;8.73;;;2.63;;
4424;SDS011;2225;53.568;13.266;2023-12-28T12:39:48;10.20;;;2.67;;
4424;SDS011;2225;53.568;13.266;2023-12-28T12:42:16;10.57;;;2.73;;
4424;SDS011;2225;53.568;13.266;2023-12-28T12:44:43;7.80;;;2.47;;
4424;SDS011;2225;53.568;13.266;2023-12-28T12:47:10;8.53;;;2.10;;
4424;SDS011;2225;53.568;13.266;2023-12-28T12:49:39;19.53;;;3.43;;
4424;SDS011;2225;53.568;13.266;2023-12-28T12:52:08;8.07;;;2.40;;
4424;SDS011;2225;53.568;13.266;2023-12-28T12:54:36;8.20;;;2.40;;
4424;SDS011;2225;53.568;13.266;2023-12-28T12:57:03;8.70;;;2.50;;
4424;SDS011;2225;53.568;13.266;2023-12-28T12:59:31;10.47;;;2.57;;
4424;SDS011;2225;53.568;13.266;2023-12-28T13:01:59;16.10;;;3.50;;
4424;SDS011;2225;53.568;13.266;2023-12-28T13:04:27;11.73;;;2.80;;
4424;SDS011;2225;53.568;13.266;2023-12-28T13:06:54;6.53;;;1.67;;
4424;SDS011;2225;53.568;13.266;2023-12-28T13:09:21;13.90;;;2.73;;
4424;SDS011;2225;53.568;13.266;2023-12-28T13:11:48;9.17;;;2.83;;
4424;SDS011;2225;53.568;13.266;2023-12-28T13:14:16;10.87;;;3.43;;
4424;SDS011;2225;53.568;13.266;2023-12-28T13:16:43;9.20;;;2.63;;
4424;SDS011;2225;53.568;13.266;2023-12-28T13:19:10;10.03;;;3.00;;
4424;SDS011;2225;53.568;13.266;2023-12-28T13:21:37;12.87;;;2.97;;
4424;SDS011;2225;53.568;13.266;2023-12-28T13:24:04;9.97;;;2.50;;
4424;SDS011;2225;53.568;13.266;2023-12-28T13:26:32;9.47;;;2.70;;
4424;SDS011;2225;53.568;13.266;2023-12-28T13:28:59;7.63;;;2.90;;
4424;SDS011;2225;53.568;13.266;2023-12-28T13:31:28;13.57;;;3.17;;
4424;SDS011;2225;53.568;13.266;2023-12-28T13:33:55;7.20;;;2.27;;
4424;SDS011;2225;53.568;13.266;2023-12-28T13:36:22;11.40;;;2.70;;
4424;SDS011;2225;53.568;13.266;2023-12-28T13:38:49;15.57;;;3.00;;
4424;SDS011;2225;53.568;13.266;2023-12-28T13:41:16;13.43;;;3.20;;
4424;SDS011;2225;53.568;13.266;2023-12-28T13:43:43;7.70;;;2.80;;
4424;SDS011;2225;53.568;13.266;2023-12-28T13:46:10;12.97;;;2.87;;
4424;SDS011;2225;53.568;13.266;2023-12-28T13:48:37;7.43;;;2.43;;
4424;SDS011;2225;53.568;13.266;2023-12-28T13:51:09;12.07;;;2.97;;
4424;SDS011;2225;53.568;13.266;2023-12-28T13:53:36;10.97;;;2.87;;
4424;SDS011;2225;53.568;13.266;2023-12-28T13:56:07;10.30;;;3.40;;
4424;SDS011;2225;53.568;13.266;2023-12-28T13:58:37;11.00;;;2.53;;
4424;SDS011;2225;53.568;13.266;2023-12-28T14:01:04;7.33;;;2.50;;
4424;SDS011;2225;53.568;13.266;2023-12-28T14:03:31;6.83;;;2.43;;
4424;SDS011;2225;53.568;13.266;2023-12-28T14:05:58;11.87;;;2.60;;
4424;SDS011;2225;53.568;13.266;2023-12-28T14:08:26;17.60;;;3.20;;
4424;SDS011;2225;53.568;13.266;2023-12-28T14:10:53;12.67;;;2.80;;
4424;SDS011;2225;53.568;13.266;2023-12-28T14:13:19;14.90;;;2.70;;
4424;SDS011;2225;53.568;13.266;2023-12-28T14:15:47;11.80;;;2.57;;
4424;SDS011;2225;53.568;13.266;2023-12-28T14:18:14;13.43;;;3.03;;
4424;SDS011;2225;53.568;13.266;2023-12-28T14:20:42;13.33;;;6.80;;
4424;SDS011;2225;53.568;13.266;2023-12-28T14:23:08;18.10;;;2.90;;
4424;SDS011;2225;53.568;13.266;2023-12-28T14:25:36;13.20;;;3.07;;
4424;SDS011;2225;53.568;13.266;2023-12-28T14:28:03;11.07;;;2.73;;
4424;SDS011;2225;53.568;13.266;2023-12-28T14:30:31;8.83;;;3.33;;
4424;SDS011;2225;53.568;13.266;2023-12-28T14:32:58;10.93;;;2.87;;
4424;SDS011;2225;53.568;13.266;2023-12-28T14:35:26;13.50;;;3.00;;
4424;SDS011;2225;53.568;13.266;2023-12-28T14:37:54;10.60;;;2.97;;
4424;SDS011;2225;53.568;13.266;2023-12-28T14:40:21;11.50;;;3.10;;
4424;SDS011;2225;53.568;13.266;2023-12-28T14:42:48;21.63;;;3.70;;
4424;SDS011;2225;53.568;13.266;2023-12-28T14:45:15;12.87;;;2.97;;
4424;SDS011;2225;53.568;13.266;2023-12-28T14:47:43;12.47;;;3.03;;
4424;SDS011;2225;53.568;13.266;2023-12-28T14:50:10;13.13;;;2.83;;
4424;SDS011;2225;53.568;13.266;2023-12-28T14:52:37;13.23;;;2.73;;
4424;SDS011;2225;53.568;13.266;2023-12-28T14:55:09;18.37;;;3.60;;
4424;SDS011;2225;53.568;13.266;2023-12-28T14:57:36;8.20;;;3.00;;
4424;SDS011;2225;53.568;13.266;2023-12-28T15:00:03;9.57;;;2.43;;
4424;SDS011;2225;53.568;13.266;2023-12-28T15:02:31;13.47;;;3.50;;
4424;SDS011;2225;53.568;13.266;2023-12-28T15:04:59;14.90;;;3.30;;